Gloucester, Virginia
Current Conditions -  °F | °C
As of 3:35 AM on Wednesday 22 Oct 2014 (Local Time) from KW75 Reporting Station
Overcast Overcast  
Wind Chill: 55°   Ceiling: 1200
Heat Index: 55°   Visibility: 10mi
Dew Point: 52°   Wind: 13mph
Humidity: 88%   Direction: 320°NW
Pressure: 29.82"   Gusts: 18mph
Location:  37.41°N, 76.52°W
Report Text: KW75 220735Z AUTO 32011G16KT 300V360 10SM OVC012 13/11 A2982 RMK AO1 T01280109
Loading
Personal Weather Stations






























Interactive Weather Map
Tropical Storm Tracking
New forecast layout! Learn more

10-Day Weather Forecast

Advertisements
Track Severe Weather on mobile